Time;durP1;ratioP1;P1;durP2;ratioP2;P2;SDS_P1;SDS_P2;PMS_P1;PMS_P2;Temp;Humidity;BMP_temperature;BMP_pressure;BME280_temperature;BME280_humidity;BME280_pressure;Samples;Min_cycle;Max_cycle;Signal;HPM_P1;HPM_P2
2022/09/17 00:01:53;;;;;;;3.80;0.80;;;12.30;99.90;;;;;;10455632;28;20391;-78
2022/09/17 00:06:56;;;;;;;2.00;0.77;;;12.20;99.90;;;;;;10458786;28;20048;-77
2022/09/17 00:11:58;;;;;;;3.10;0.75;;;12.20;99.90;;;;;;10457114;28;20411;-78
2022/09/17 00:17:00;;;;;;;3.58;0.73;;;12.30;99.90;;;;;;10456785;28;20056;-78
2022/09/17 00:22:04;;;;;;;4.03;0.80;;;12.10;99.90;;;;;;10457894;28;20041;-78
2022/09/17 00:27:06;;;;;;;2.08;0.75;;;12.00;99.90;;;;;;10461527;28;20056;-78
2022/09/17 00:32:08;;;;;;;2.45;0.70;;;12.00;99.90;;;;;;10457974;28;20049;-78
2022/09/17 00:37:11;;;;;;;2.85;0.80;;;12.00;99.90;;;;;;10456366;28;20049;-78
2022/09/17 00:42:15;;;;;;;2.53;0.82;;;12.00;99.90;;;;;;10454396;28;20044;-78
2022/09/17 00:47:25;;;;;;;2.38;0.90;;;12.00;99.90;;;;;;10456456;28;20056;-78
2022/09/17 00:52:34;;;;;;;2.17;0.70;;;12.00;99.90;;;;;;10455882;28;20497;-78
2022/09/17 00:57:36;;;;;;;1.60;0.70;;;12.00;99.90;;;;;;10456703;28;20098;-78
2022/09/17 01:02:39;;;;;;;2.65;0.80;;;12.00;99.90;;;;;;10454575;28;20060;-78
2022/09/17 01:08:05;;;;;;;3.83;0.90;;;12.00;99.90;;;;;;10455599;28;20049;-77
2022/09/17 01:13:20;;;;;;;3.00;0.77;;;12.10;99.90;;;;;;10458843;28;20053;-78
2022/09/17 01:18:36;;;;;;;2.58;1.00;;;12.00;99.90;;;;;;10461848;28;20048;-77
2022/09/17 01:24:27;;;;;;;2.47;0.80;;;12.00;99.90;;;;;;10454102;28;20049;-77
2022/09/17 01:29:54;;;;;;;2.72;0.80;;;12.00;99.90;;;;;;10457030;28;20075;-78
2022/09/17 01:35:05;;;;;;;2.17;0.70;;;12.00;99.90;;;;;;10453658;28;20045;-78
2022/09/17 01:40:13;;;;;;;3.40;1.00;;;11.90;99.90;;;;;;10454608;28;20053;-77
2022/09/17 01:45:22;;;;;;;3.13;0.80;;;11.90;99.90;;;;;;10454828;28;20057;-78
2022/09/17 01:50:30;;;;;;;3.00;0.90;;;11.90;99.90;;;;;;10456195;28;20060;-79
2022/09/17 01:55:37;;;;;;;3.38;0.90;;;11.90;99.90;;;;;;10454893;28;20044;-76
2022/09/17 02:00:42;;;;;;;2.30;0.90;;;11.90;99.90;;;;;;10465851;28;20056;-77
2022/09/17 02:05:51;;;;;;;1.88;0.80;;;11.80;99.90;;;;;;10461361;28;20533;-79
2022/09/17 02:11:00;;;;;;;3.80;1.05;;;11.70;99.90;;;;;;10463420;28;20045;-78
2022/09/17 02:16:06;;;;;;;;;;;11.60;99.90;;;;;;10461628;28;20056;-78
2022/09/17 02:21:17;;;;;;;4.20;1.00;;;11.60;99.90;;;;;;10463514;28;19925;-79
2022/09/17 02:26:21;;;;;;;3.72;0.93;;;11.60;99.90;;;;;;10461608;28;20436;-78
2022/09/17 02:31:23;;;;;;;4.47;1.20;;;11.50;99.90;;;;;;10461091;28;20483;-78
2022/09/17 02:36:27;;;;;;;2.90;1.08;;;11.40;99.90;;;;;;10460011;28;20057;-78
2022/09/17 02:41:43;;;;;;;5.40;1.20;;;11.30;99.90;;;;;;10462062;28;20411;-78
2022/09/17 02:47:24;;;;;;;2.78;1.08;;;11.40;99.90;;;;;;10459316;28;20501;-78
2022/09/17 02:52:43;;;;;;;4.15;0.90;;;11.50;99.90;;;;;;10461937;28;20057;-77
2022/09/17 02:57:53;;;;;;;3.13;0.90;;;11.50;99.90;;;;;;10461130;28;20056;-78
2022/09/17 03:03:02;;;;;;;2.72;0.90;;;11.50;99.90;;;;;;10461886;28;20060;-80
2022/09/17 03:08:09;;;;;;;2.42;0.70;;;11.50;99.90;;;;;;10457948;28;20049;-78
2022/09/17 03:13:11;;;;;;;2.35;0.88;;;11.60;99.90;;;;;;10461242;28;20056;-79
2022/09/17 03:18:13;;;;;;;4.22;1.20;;;11.70;99.90;;;;;;10460569;28;20048;-78
2022/09/17 03:23:17;;;;;;;2.85;0.90;;;11.70;99.90;;;;;;10459755;28;20059;-79
2022/09/17 03:28:19;;;;;;;3.50;1.10;;;11.70;99.90;;;;;;10457834;28;20140;-77
2022/09/17 03:33:21;;;;;;;3.20;1.05;;;11.70;99.90;;;;;;10459818;28;20045;-78
2022/09/17 03:38:24;;;;;;;3.03;1.10;;;11.80;99.90;;;;;;10458668;28;20056;-79
2022/09/17 03:43:27;;;;;;;2.67;1.08;;;11.80;99.90;;;;;;10458677;28;20057;-78
2022/09/17 03:48:29;;;;;;;6.60;1.20;;;11.80;99.90;;;;;;10457351;28;20422;-78
2022/09/17 03:53:32;;;;;;;3.60;1.10;;;11.70;99.90;;;;;;10456376;28;20487;-79
2022/09/17 03:58:35;;;;;;;5.47;1.30;;;11.50;99.90;;;;;;10458298;28;20049;-78
2022/09/17 04:03:37;;;;;;;2.90;1.02;;;11.40;99.90;;;;;;10459452;28;20053;-79
2022/09/17 04:08:42;;;;;;;3.95;1.00;;;11.30;99.90;;;;;;10457832;28;20052;-79
2022/09/17 04:13:45;;;;;;;3.22;1.20;;;11.40;99.90;;;;;;10458895;28;20041;-79
2022/09/17 04:18:47;;;;;;;3.60;0.93;;;11.20;99.90;;;;;;10457490;28;20049;-79
2022/09/17 04:23:51;;;;;;;3.10;1.00;;;11.30;99.90;;;;;;10454757;28;20052;-78
2022/09/17 04:28:53;;;;;;;4.57;1.15;;;11.30;99.90;;;;;;10456664;28;20049;-77
2022/09/17 04:33:55;;;;;;;4.05;1.08;;;11.30;99.90;;;;;;10456450;28;20048;-79
2022/09/17 04:38:58;;;;;;;4.47;1.00;;;11.20;99.90;;;;;;10458042;28;20075;-78
2022/09/17 04:44:00;;;;;;;5.25;1.23;;;11.10;99.90;;;;;;10454766;28;20044;-79
2022/09/17 04:49:02;;;;;;;3.80;1.20;;;11.10;99.90;;;;;;10457757;28;20049;-80
2022/09/17 04:54:06;;;;;;;5.50;1.15;;;11.10;99.90;;;;;;10455917;28;20041;-79
2022/09/17 04:59:08;;;;;;;4.82;1.15;;;11.00;99.90;;;;;;10457203;28;20041;-78
2022/09/17 05:04:10;;;;;;;4.18;1.30;;;11.00;99.90;;;;;;10454651;28;20056;-79
2022/09/17 05:09:14;;;;;;;4.88;1.40;;;10.80;99.90;;;;;;10454921;28;20049;-77
2022/09/17 05:14:16;;;;;;;4.82;1.25;;;10.80;99.90;;;;;;10455119;28;20052;-79
2022/09/17 05:19:18;;;;;;;5.70;1.10;;;10.80;99.90;;;;;;10452808;28;20048;-78
2022/09/17 05:24:21;;;;;;;4.28;1.10;;;10.80;99.90;;;;;;10455177;28;20061;-78
2022/09/17 05:29:23;;;;;;;5.07;1.25;;;10.70;99.90;;;;;;10435853;28;20064;-77
2022/09/17 05:34:25;;;;;;;8.07;1.52;;;10.70;99.90;;;;;;10439327;28;20052;-77
2022/09/17 05:39:29;;;;;;;6.97;1.60;;;10.70;99.90;;;;;;10446297;28;20411;-77
2022/09/17 05:44:32;;;;;;;3.92;1.23;;;10.70;99.90;;;;;;10440898;28;20046;-77
2022/09/17 05:49:34;;;;;;;5.97;1.42;;;10.70;99.90;;;;;;10440027;28;20049;-77
2022/09/17 05:54:38;;;;;;;5.22;1.27;;;10.80;99.90;;;;;;10452978;28;20064;-76
2022/09/17 05:59:40;;;;;;;6.07;1.40;;;10.80;99.90;;;;;;10452441;28;20056;-78
2022/09/17 06:04:42;;;;;;;6.65;1.20;;;10.90;99.90;;;;;;10442338;28;20049;-76
2022/09/17 06:09:45;;;;;;;7.05;1.50;;;10.90;99.90;;;;;;10452458;28;20052;-79
2022/09/17 06:14:47;;;;;;;5.25;1.40;;;11.00;99.90;;;;;;10452175;28;20041;-77
2022/09/17 06:19:49;;;;;;;6.55;1.48;;;11.00;99.90;;;;;;10451567;28;20048;-77
2022/09/17 06:24:52;;;;;;;8.52;2.15;;;10.90;99.90;;;;;;10448448;28;20052;-79
2022/09/17 06:29:54;;;;;;;6.85;1.50;;;10.90;99.90;;;;;;10453778;28;20052;-78
2022/09/17 06:34:57;;;;;;;4.90;1.50;;;11.00;99.90;;;;;;10451177;28;20046;-79
2022/09/17 06:40:01;;;;;;;5.05;1.60;;;11.00;99.90;;;;;;10432592;28;20084;-77
2022/09/17 06:45:03;;;;;;;6.57;1.30;;;11.00;99.90;;;;;;10445068;28;20061;-79
2022/09/17 06:50:06;;;;;;;4.60;1.40;;;11.20;99.90;;;;;;10446812;28;20134;-77
2022/09/17 06:55:10;;;;;;;4.38;1.38;;;11.10;99.90;;;;;;10431457;28;20049;-76
2022/09/17 07:00:14;;;;;;;4.35;1.40;;;11.10;99.90;;;;;;10451505;28;20121;-78
2022/09/17 07:05:16;;;;;;;3.20;1.40;;;11.00;99.90;;;;;;10457936;28;20505;-78
2022/09/17 07:10:22;;;;;;;5.30;1.58;;;11.10;99.90;;;;;;10458759;28;20045;-78
2022/09/17 07:15:24;;;;;;;5.75;1.90;;;11.00;99.90;;;;;;10451517;28;20463;-78
2022/09/17 07:20:26;;;;;;;5.22;1.50;;;11.00;99.90;;;;;;10459415;28;20053;-78
2022/09/17 07:25:29;;;;;;;8.80;1.98;;;11.00;99.90;;;;;;10461188;28;20049;-77
2022/09/17 07:30:31;;;;;;;4.72;1.42;;;11.00;99.90;;;;;;10453602;28;20052;-77
2022/09/17 07:35:33;;;;;;;6.65;1.80;;;11.00;99.90;;;;;;10438953;28;20052;-77
2022/09/17 07:40:37;;;;;;;7.75;1.73;;;11.10;99.90;;;;;;10453406;28;20056;-77
2022/09/17 07:45:39;;;;;;;6.93;1.80;;;11.10;99.90;;;;;;10436032;28;20044;-78
2022/09/17 07:50:41;;;;;;;6.60;1.55;;;10.90;99.90;;;;;;10457769;28;20048;-79
2022/09/17 07:55:52;;;;;;;6.43;1.60;;;11.00;99.90;;;;;;10457434;28;20041;-78
2022/09/17 08:00:54;;;;;;;5.43;1.70;;;11.00;99.90;;;;;;10456105;28;20045;-79
2022/09/17 08:06:03;;;;;;;3.85;1.60;;;10.90;99.90;;;;;;10459586;28;20060;-78
2022/09/17 08:11:09;;;;;;;6.35;1.80;;;10.80;99.90;;;;;;10440548;28;20045;-78
2022/09/17 08:16:13;;;;;;;6.78;1.92;;;10.90;99.90;;;;;;10418152;28;20052;-80
2022/09/17 08:21:17;;;;;;;5.47;1.80;;;10.90;99.90;;;;;;10432405;28;20049;-77
2022/09/17 08:26:22;;;;;;;4.28;1.60;;;10.90;99.90;;;;;;10450758;28;20059;-79
2022/09/17 08:31:27;;;;;;;5.07;1.90;;;10.90;99.90;;;;;;10445011;28;20499;-78
2022/09/17 08:36:29;;;;;;;5.45;1.50;;;11.00;99.90;;;;;;10451099;28;20052;-78
2022/09/17 08:41:45;;;;;;;6.28;1.63;;;11.00;99.90;;;;;;10452687;28;20057;-80
2022/09/17 08:46:51;;;;;;;3.80;1.60;;;11.00;99.90;;;;;;10449056;28;20427;-77
2022/09/17 08:52:14;;;;;;;4.47;1.70;;;11.00;99.90;;;;;;10418227;28;20053;-78
2022/09/17 08:57:28;;;;;;;3.70;1.25;;;10.90;99.90;;;;;;10424048;28;20130;-79
2022/09/17 09:02:56;;;;;;;4.90;1.50;;;11.00;99.90;;;;;;10452644;28;20077;-78
2022/09/17 09:08:03;;;;;;;3.72;1.42;;;10.90;99.90;;;;;;10444348;28;20053;-78
2022/09/17 09:13:06;;;;;;;6.35;1.50;;;11.00;99.90;;;;;;10418075;28;20049;-79
2022/09/17 09:18:23;;;;;;;4.50;1.67;;;11.20;99.90;;;;;;10442390;28;20380;-79
2022/09/17 09:23:36;;;;;;;7.28;1.63;;;11.30;99.90;;;;;;10448051;28;20049;-78
2022/09/17 09:29:10;;;;;;;4.75;1.48;;;11.50;99.90;;;;;;10440638;28;20048;-79
2022/09/17 09:34:14;;;;;;;5.60;1.70;;;11.60;99.90;;;;;;10404834;28;20052;-79
2022/09/17 09:39:21;;;;;;;7.85;1.80;;;11.90;99.90;;;;;;10448411;28;20052;-78
2022/09/17 09:44:25;;;;;;;7.50;1.77;;;11.70;99.90;;;;;;10443801;28;20049;-76
2022/09/17 09:49:44;;;;;;;10.65;2.05;;;11.80;99.90;;;;;;10449248;28;20048;-76
2022/09/17 09:55:04;;;;;;;11.30;2.25;;;12.10;99.90;;;;;;10451021;28;20063;-76
2022/09/17 10:00:34;;;;;;;9.90;1.80;;;12.10;99.90;;;;;;10442447;28;20104;-78
2022/09/17 10:05:36;;;;;;;9.40;1.90;;;12.10;99.90;;;;;;10448168;28;20059;-79
2022/09/17 10:10:55;;;;;;;7.30;1.80;;;12.30;99.90;;;;;;10450266;28;20064;-79
2022/09/17 10:16:17;;;;;;;9.65;2.00;;;12.40;99.90;;;;;;10415197;28;20080;-76
2022/09/17 10:21:21;;;;;;;7.63;2.05;;;12.60;99.90;;;;;;10450905;28;20053;-79
2022/09/17 10:26:26;;;;;;;8.35;2.10;;;12.70;99.90;;;;;;10461863;28;20498;-79
2022/09/17 10:31:47;;;;;;;10.38;2.22;;;12.50;99.90;;;;;;10458316;28;20045;-79
2022/09/17 10:36:49;;;;;;;12.75;2.13;;;12.40;99.90;;;;;;10460953;28;20045;-78
2022/09/17 10:41:56;;;;;;;13.73;2.30;;;12.50;99.90;;;;;;10462717;28;20064;-79
2022/09/17 10:47:13;;;;;;;8.93;2.05;;;12.60;99.90;;;;;;10457810;28;20491;-79
2022/09/17 10:52:25;;;;;;;9.27;2.03;;;12.90;99.90;;;;;;10461591;28;20052;-77
2022/09/17 10:57:46;;;;;;;7.05;1.70;;;13.10;99.90;;;;;;10462032;28;20045;-78
2022/09/17 11:03:42;;;;;;;5.45;1.55;;;13.00;99.90;;;;;;10462503;28;20053;-78
2022/09/17 11:08:56;;;;;;;5.55;1.70;;;13.30;99.90;;;;;;10462143;28;20376;-78
2022/09/17 11:14:12;;;;;;;8.15;1.88;;;13.50;99.90;;;;;;10461696;28;20106;-77
2022/09/17 11:19:27;;;;;;;6.70;1.70;;;13.40;98.90;;;;;;10461845;28;20045;-77
2022/09/17 11:25:01;;;;;;;6.22;1.10;;;13.60;98.90;;;;;;10460907;28;20041;-78
2022/09/17 11:30:15;;;;;;;5.18;1.40;;;13.50;96.50;;;;;;10460766;28;20045;-78
2022/09/17 11:35:22;;;;;;;8.73;1.50;;;13.70;96.40;;;;;;10461241;28;20403;-79
2022/09/17 11:40:32;;;;;;;4.57;1.48;;;14.00;96.20;;;;;;10460671;28;20535;-78
2022/09/17 11:45:39;;;;;;;6.97;1.40;;;14.00;95.50;;;;;;10460232;28;20056;-78
2022/09/17 11:50:49;;;;;;;7.20;1.63;;;13.90;96.40;;;;;;10461236;28;20060;-78
2022/09/17 11:55:57;;;;;;;7.20;1.35;;;14.20;96.00;;;;;;10460745;28;20056;-78
2022/09/17 12:01:05;;;;;;;4.87;1.20;;;14.50;95.50;;;;;;10459816;28;20045;-77
2022/09/17 12:06:15;;;;;;;11.18;2.90;;;14.60;95.40;;;;;;10459722;28;20049;-80
2022/09/17 12:11:22;;;;;;;4.60;1.15;;;14.90;95.00;;;;;;10459601;28;20049;-77
2022/09/17 12:16:28;;;;;;;3.83;1.10;;;14.80;93.20;;;;;;10459067;28;20041;-79
2022/09/17 12:21:40;;;;;;;4.43;1.17;;;14.60;93.40;;;;;;10458641;28;20049;-77
2022/09/17 12:27:10;;;;;;;4.55;1.30;;;14.70;93.60;;;;;;10456899;28;20087;-78
2022/09/17 12:32:43;;;;;;;4.53;1.20;;;14.50;93.00;;;;;;10459673;28;20052;-77
2022/09/17 12:38:02;;;;;;;5.10;1.00;;;14.50;93.10;;;;;;10459074;28;20414;-78
2022/09/17 12:43:44;;;;;;;5.60;1.23;;;14.30;92.70;;;;;;10457840;28;20049;-79
2022/09/17 12:49:18;;;;;;;3.97;1.00;;;14.10;91.70;;;;;;10457843;28;20076;-78
2022/09/17 12:54:40;;;;;;;5.95;1.10;;;14.10;92.50;;;;;;10457781;28;20089;-78
2022/09/17 12:59:52;;;;;;;4.70;1.20;;;13.90;93.50;;;;;;10453617;28;20052;-79
2022/09/17 13:05:38;;;;;;;7.13;1.17;;;13.90;94.00;;;;;;10454579;28;20095;-80
2022/09/17 13:11:20;;;;;;;5.07;1.10;;;14.00;93.50;;;;;;10463445;28;20471;-79
2022/09/17 13:16:32;;;;;;;3.75;1.05;;;14.30;94.00;;;;;;10451339;28;20095;-79
2022/09/17 13:21:44;;;;;;;3.63;1.08;;;14.20;93.00;;;;;;10447714;28;20053;-79
2022/09/17 13:26:48;;;;;;;4.78;1.15;;;14.10;93.90;;;;;;10450787;28;20427;-79
2022/09/17 13:31:51;;;;;;;3.30;0.88;;;13.90;95.60;;;;;;10447999;28;20052;-78
2022/09/17 13:36:54;;;;;;;3.72;0.90;;;13.40;97.40;;;;;;10450393;28;20131;-79
2022/09/17 13:42:06;;;;;;;3.42;1.10;;;12.50;99.90;;;;;;10446674;28;20073;-77
2022/09/17 13:47:15;;;;;;;2.03;0.85;;;11.80;99.90;;;;;;10446713;28;20156;-79
2022/09/17 13:52:34;;;;;;;2.30;0.80;;;11.10;99.90;;;;;;10448065;28;20056;-79
2022/09/17 13:57:50;;;;;;;3.42;0.90;;;11.10;99.90;;;;;;10449500;28;20080;-77
2022/09/17 14:02:52;;;;;;;3.58;0.93;;;11.50;99.90;;;;;;10448520;28;20052;-78
2022/09/17 14:08:26;;;;;;;3.75;1.20;;;11.80;99.90;;;;;;10449741;28;20057;-78
2022/09/17 14:13:44;;;;;;;4.00;1.10;;;12.40;99.90;;;;;;10448657;28;20465;-78
2022/09/17 14:18:59;;;;;;;5.47;1.47;;;12.90;99.90;;;;;;10449985;28;20099;-79
2022/09/17 14:24:03;;;;;;;2.60;1.08;;;13.40;99.90;;;;;;10448383;28;20307;-79
2022/09/17 14:29:18;;;;;;;4.18;0.90;;;14.70;99.90;;;;;;10448176;28;20057;-78
2022/09/17 14:34:23;;;;;;;3.00;0.80;;;15.20;99.90;;;;;;10446857;28;20067;-78
2022/09/17 14:39:29;;;;;;;4.32;1.00;;;16.10;98.40;;;;;;10448838;28;20053;-78
2022/09/17 14:44:35;;;;;;;5.13;1.70;;;16.00;98.80;;;;;;10447016;28;20382;-77
2022/09/17 14:49:39;;;;;;;2.10;0.90;;;15.70;98.30;;;;;;10448508;28;20048;-78
2022/09/17 14:54:43;;;;;;;3.95;1.02;;;15.20;98.80;;;;;;10450507;28;20415;-79
2022/09/17 14:59:52;;;;;;;3.88;1.17;;;14.70;98.90;;;;;;10453978;28;20045;-79
2022/09/17 15:04:54;;;;;;;3.45;1.05;;;14.80;99.50;;;;;;10453654;28;20076;-78
2022/09/17 15:10:09;;;;;;;3.38;1.13;;;14.40;99.90;;;;;;10458978;28;20048;-78
2022/09/17 15:15:20;;;;;;;3.90;1.48;;;14.30;99.90;;;;;;10458847;28;20057;-78
2022/09/17 15:20:25;;;;;;;3.03;0.85;;;14.60;99.90;;;;;;10460433;28;20045;-77
2022/09/17 15:25:31;;;;;;;4.32;0.90;;;14.40;99.20;;;;;;10453974;28;20075;-78
2022/09/17 15:30:34;;;;;;;3.75;1.15;;;14.20;99.70;;;;;;10458746;28;20056;-79
2022/09/17 15:35:36;;;;;;;3.70;1.10;;;14.00;99.90;;;;;;10460460;28;20067;-77
2022/09/17 15:40:40;;;;;;;3.33;1.02;;;13.80;99.90;;;;;;10457988;28;20136;-78
2022/09/17 15:45:44;;;;;;;5.47;1.20;;;13.60;99.90;;;;;;10457005;28;20052;-77
2022/09/17 15:50:55;;;;;;;3.72;1.10;;;13.50;99.90;;;;;;10456129;28;20457;-77
2022/09/17 15:56:06;;;;;;;2.85;1.00;;;13.50;99.90;;;;;;10458345;28;20483;-77
2022/09/17 16:01:52;;;;;;;4.00;1.20;;;13.50;99.90;;;;;;10441173;28;20037;-79
2022/09/17 16:07:27;;;;;;;3.95;1.27;;;13.30;99.90;;;;;;10443337;28;20130;-78
2022/09/17 16:12:29;;;;;;;3.53;1.20;;;13.30;99.90;;;;;;10431614;28;20045;-80
2022/09/17 16:17:47;;;;;;;4.57;1.50;;;13.50;99.90;;;;;;10435878;28;20056;-78
2022/09/17 16:22:50;;;;;;;4.65;1.20;;;13.80;99.90;;;;;;10439132;28;20407;-78
2022/09/17 16:27:57;;;;;;;3.15;1.27;;;13.80;99.90;;;;;;10453295;28;20053;-78
2022/09/17 16:33:02;;;;;;;5.97;1.45;;;13.90;99.90;;;;;;10453085;28;20053;-79
2022/09/17 16:38:04;;;;;;;4.50;1.50;;;13.80;99.90;;;;;;10452528;28;20502;-79
2022/09/17 16:43:07;;;;;;;6.82;1.80;;;13.90;99.90;;;;;;10452523;28;20407;-78
2022/09/17 16:48:11;;;;;;;5.05;1.80;;;14.50;99.90;;;;;;10452331;28;20135;-77
2022/09/17 16:53:13;;;;;;;5.32;1.95;;;14.70;99.50;;;;;;10449800;28;20119;-75
2022/09/17 16:58:15;;;;;;;5.32;2.15;;;14.30;99.50;;;;;;10450439;28;20060;-77
2022/09/17 17:03:19;;;;;;;7.00;2.00;;;14.10;99.90;;;;;;10452540;28;20506;-78
2022/09/17 17:08:21;;;;;;;7.20;1.45;;;13.80;99.90;;;;;;10455380;28;20064;-78
2022/09/17 17:13:23;;;;;;;4.40;1.30;;;13.60;99.90;;;;;;10456006;28;20041;-78
2022/09/17 17:18:27;;;;;;;4.55;1.35;;;13.50;99.90;;;;;;10456443;28;20127;-77
2022/09/17 17:23:29;;;;;;;4.85;1.40;;;13.40;99.90;;;;;;10456139;28;20053;-77
2022/09/17 17:28:32;;;;;;;3.33;1.10;;;13.40;99.90;;;;;;10455698;28;20049;-78
2022/09/17 17:33:36;;;;;;;3.17;1.42;;;13.20;99.90;;;;;;10455725;28;20049;-79
2022/09/17 17:38:38;;;;;;;5.00;1.20;;;13.20;99.90;;;;;;10446731;28;20052;-79
2022/09/17 17:43:40;;;;;;;4.10;1.38;;;13.10;99.90;;;;;;10449916;28;20049;-79
2022/09/17 17:48:44;;;;;;;3.50;1.17;;;13.10;99.90;;;;;;10435146;28;20060;-79
2022/09/17 17:53:47;;;;;;;3.28;1.33;;;12.90;99.90;;;;;;10429193;28;20051;-80
2022/09/17 17:58:54;;;;;;;3.65;1.10;;;12.80;99.90;;;;;;10425445;28;20053;-76
2022/09/17 18:04:01;;;;;;;4.22;1.30;;;12.60;99.90;;;;;;10426463;28;20053;-79
2022/09/17 18:09:04;;;;;;;3.30;1.35;;;12.50;99.90;;;;;;10437413;28;20049;-79
2022/09/17 18:14:06;;;;;;;4.38;1.30;;;12.40;99.90;;;;;;10439345;28;20424;-77
2022/09/17 18:19:11;;;;;;;4.05;1.40;;;12.30;99.90;;;;;;10424843;28;20400;-77
2022/09/17 18:24:13;;;;;;;4.97;1.50;;;12.10;99.90;;;;;;10449564;28;20129;-77
2022/09/17 18:29:16;;;;;;;4.25;1.63;;;12.10;99.90;;;;;;10439520;28;20049;-76
2022/09/17 18:34:19;;;;;;;4.68;1.67;;;12.10;99.90;;;;;;10434401;28;20136;-77
2022/09/17 18:39:21;;;;;;;6.75;1.75;;;12.00;99.90;;;;;;10442353;28;20049;-78
2022/09/17 18:44:24;;;;;;;3.38;1.70;;;12.00;99.90;;;;;;10442543;28;20056;-75
2022/09/17 18:49:27;;;;;;;6.05;1.75;;;11.90;99.90;;;;;;10451489;28;20362;-79
2022/09/17 18:54:29;;;;;;;4.32;1.75;;;11.80;99.90;;;;;;10441341;28;20058;-78
2022/09/17 18:59:31;;;;;;;4.82;2.17;;;11.80;99.90;;;;;;10452100;28;20045;-76
2022/09/17 19:04:35;;;;;;;4.22;1.65;;;11.90;99.90;;;;;;10438605;28;20499;-77
2022/09/17 19:09:37;;;;;;;4.00;1.23;;;11.90;99.90;;;;;;10444387;28;20051;-79
2022/09/17 19:14:40;;;;;;;5.85;1.73;;;11.90;99.90;;;;;;10455648;28;20080;-78
2022/09/17 19:19:43;;;;;;;14.70;5.20;;;11.80;99.90;;;;;;10444337;28;20049;-79
2022/09/17 19:24:45;;;;;;;7.40;1.90;;;11.70;99.90;;;;;;10455647;28;20422;-77
2022/09/17 19:29:47;;;;;;;4.45;1.67;;;11.60;99.90;;;;;;10453286;28;20068;-76
2022/09/17 19:34:51;;;;;;;5.00;1.55;;;11.60;99.90;;;;;;10441474;28;20056;-76
2022/09/17 19:39:53;;;;;;;3.88;1.38;;;11.60;99.90;;;;;;10440875;28;20049;-76
2022/09/17 19:44:55;;;;;;;5.13;1.30;;;11.50;99.90;;;;;;10441695;28;20052;-78
2022/09/17 19:49:58;;;;;;;3.88;0.80;;;11.50;99.90;;;;;;10445693;28;20052;-76
2022/09/17 19:55:01;;;;;;;3.25;1.00;;;11.10;99.90;;;;;;10455127;28;20128;-78
2022/09/17 20:00:05;;;;;;;4.38;0.88;;;11.10;99.90;;;;;;10447438;28;20049;-78
2022/09/17 20:05:09;;;;;;;4.47;1.20;;;11.00;99.90;;;;;;10453252;28;20045;-77
2022/09/17 20:10:11;;;;;;;3.10;1.15;;;11.00;99.90;;;;;;10431927;28;20049;-78
2022/09/17 20:15:13;;;;;;;6.47;2.20;;;11.00;99.90;;;;;;10438346;28;20049;-77
2022/09/17 20:20:17;;;;;;;3.90;1.45;;;11.10;99.90;;;;;;10447243;28;20049;-75
2022/09/17 20:25:19;;;;;;;3.42;0.90;;;11.00;99.90;;;;;;10453024;28;20487;-78
2022/09/17 20:30:21;;;;;;;5.78;1.10;;;11.10;99.90;;;;;;10452820;28;20063;-79
2022/09/17 20:35:24;;;;;;;3.88;0.80;;;11.20;99.90;;;;;;10453604;28;20053;-77
2022/09/17 20:40:27;;;;;;;2.60;1.10;;;11.10;99.90;;;;;;10451960;28;20088;-77
2022/09/17 20:45:29;;;;;;;3.20;0.90;;;11.20;99.90;;;;;;10452884;28;20052;-77
2022/09/17 20:50:32;;;;;;;4.43;1.20;;;11.10;99.90;;;;;;10444429;28;20131;-77
2022/09/17 20:55:34;;;;;;;3.58;0.90;;;11.10;99.90;;;;;;10449464;28;20514;-78
2022/09/17 21:00:36;;;;;;;3.03;1.00;;;11.00;99.90;;;;;;10449190;28;20055;-78
2022/09/17 21:05:40;;;;;;;3.47;0.95;;;10.90;99.90;;;;;;10442926;28;20479;-79
2022/09/17 21:10:43;;;;;;;5.35;1.23;;;10.90;99.90;;;;;;10434686;28;20418;-77
2022/09/17 21:15:55;;;;;;;3.72;0.90;;;10.90;99.90;;;;;;10440877;28;20422;-79
2022/09/17 21:21:02;;;;;;;3.05;0.90;;;10.70;99.90;;;;;;10450067;28;20049;-78
2022/09/17 21:26:09;;;;;;;6.35;1.20;;;10.70;99.90;;;;;;10450860;28;20053;-78
2022/09/17 21:31:14;;;;;;;5.05;1.13;;;10.70;99.90;;;;;;10448909;28;20058;-78
2022/09/17 21:36:20;;;;;;;4.40;1.05;;;10.70;99.90;;;;;;10448719;28;20057;-81
2022/09/17 21:41:23;;;;;;;5.03;1.30;;;10.60;99.90;;;;;;10451321;28;20396;-79
2022/09/17 21:46:27;;;;;;;4.25;1.23;;;10.50;99.90;;;;;;10447868;28;20063;-78
2022/09/17 21:51:35;;;;;;;4.28;1.33;;;10.50;99.90;;;;;;10441925;28;20053;-78
2022/09/17 21:56:38;;;;;;;5.90;1.33;;;10.40;99.90;;;;;;10436427;28;20511;-78
